Time;durP1;ratioP1;P1;durP2;ratioP2;P2;SDS_P1;SDS_P2;PMS_P1;PMS_P2;Temp;Humidity;BMP_temperature;BMP_pressure;BME280_temperature;BME280_humidity;BME280_pressure;Samples;Min_cycle;Max_cycle;Signal;HPM_P1;HPM_P2
2023/01/03 00:00:06;;;;;;;;;;;;;;;4.20;100.00;100652.38;299423;33;861;-76
2023/01/03 00:00:17;;;;;;;;;;;;;;;4.19;100.00;100656.69;295111;33;3449;-75
2023/01/03 00:00:27;;;;;;;;;;;;;;;4.20;100.00;100657.56;290317;33;6393;-75
2023/01/03 00:00:37;;;;;;;;;;;;;;;4.18;100.00;100654.97;287552;34;829;-75
2023/01/03 00:00:47;;;;;;;;;;;;;;;4.19;100.00;100656.69;293955;33;7137;-75
2023/01/03 00:00:58;;;;;;;;;;;;;;;4.19;100.00;100656.69;290612;33;7539;-75
2023/01/03 00:01:08;;;;;;;;;;;;;;;4.19;100.00;100646.31;286936;33;10642;-74
2023/01/03 00:01:18;;;;;;;;;;;;;;;4.19;100.00;100656.69;288530;34;872;-74
2023/01/03 00:01:28;;;;;;;;;;;;;;;4.19;100.00;100658.41;284474;34;10526;-74
2023/01/03 00:01:39;;;;;;;;;;;;;;;4.18;100.00;100656.69;281065;34;8663;-74
2023/01/03 00:03:30;;;;;;;;;;;;;;;4.16;100.00;100656.69;2501875;27;19941;-75
2023/01/03 00:03:41;;;;;;;;;;;;;;;4.16;100.00;100661.88;354178;27;3343;-75
2023/01/03 00:03:51;;;;;;;;;;;;;;;4.16;100.00;100655.81;353294;28;1443;-75
2023/01/03 00:04:02;;;;;;;;;;;;;;;4.16;100.00;100655.81;352011;28;1460;-75
2023/01/03 00:04:12;;;;;;;;;;;;;;;4.16;100.00;100655.81;350905;28;3084;-76
2023/01/03 00:04:22;;;;;;;;;;;;;;;4.16;100.00;100653.22;350519;28;1187;-75
2023/01/03 00:04:33;;;;;;;;;;;;;;;4.16;100.00;100656.69;350573;28;775;-75
2023/01/03 00:04:43;;;;;;;;;;;;;;;4.16;100.00;100659.28;350698;28;1397;-75
2023/01/03 00:04:53;;;;;;;;;;;;;;;4.15;100.00;100654.94;349181;28;3620;-75
2023/01/03 00:05:03;;;;;;;;;;;;;;;4.16;100.00;100661.88;351933;28;1226;-75
2023/01/03 00:05:14;;;;;;;;;;;;;;;4.16;100.00;100654.09;351858;28;1426;-75
2023/01/03 00:05:24;;;;;;;;;;;;;;;4.15;100.00;100660.13;352336;28;2565;-75
2023/01/03 00:05:34;;;;;;;;;;;;;;;4.16;100.00;100651.50;351538;28;4821;-75
2023/01/03 00:05:46;;;;;;;;;;;;;;;4.15;100.00;100654.94;350529;28;1273;-75
2023/01/03 00:05:56;;;;;;;;;;;;;;;4.14;100.00;100653.22;353367;28;1108;-75
2023/01/03 00:06:16;;;;;;;;;;;;;;;4.15;100.00;100659.28;352004;28;3367;-74
2023/01/03 00:06:28;;;;;;;;;;;;;;;4.15;100.00;100660.13;352053;28;854;-74
2023/01/03 00:06:45;;;;;;;;;;;;;;;4.15;100.00;100660.13;348825;28;2885;-74
2023/01/03 00:06:56;;;;;;;;;;;;;;;4.16;100.00;100651.50;351410;28;770;-75
2023/01/03 00:07:06;;;;;;;;;;;;;;;4.14;100.00;100657.53;351808;28;1238;-74
2023/01/03 00:07:32;;;;;;;;;;;;;;;4.15;100.00;100654.94;350540;28;1310;-74
2023/01/03 00:07:42;;;;;;;;;;;;;;;4.11;100.00;100653.22;349973;28;895;-75
2023/01/03 00:07:53;;;;;;;;;;;;;;;4.11;100.00;100658.41;351964;28;911;-75
2023/01/03 00:08:03;;;;;;;;;;;;;;;4.11;100.00;100660.13;346104;28;3468;-75
2023/01/03 00:08:14;;;;;;;;;;;;;;;4.11;100.00;100663.56;349077;28;905;-75
2023/01/03 00:08:24;;;;;;;;;;;;;;;4.10;100.00;100654.06;350584;28;843;-75
2023/01/03 00:08:34;;;;;;;;;;;;;;;4.11;100.00;100658.41;350025;28;2737;-74
2023/01/03 00:08:45;;;;;;;;;;;;;;;4.10;100.00;100656.66;348906;28;3454;-74
2023/01/03 00:08:55;;;;;;;;;;;;;;;4.11;100.00;100663.56;349168;28;1275;-75
2023/01/03 00:09:08;;;;;;;;;;;;;;;4.11;100.00;100653.22;348020;28;1411;-75
2023/01/03 00:09:19;;;;;;;;;;;;;;;4.11;100.00;100657.53;345298;28;3257;-76
2023/01/03 00:09:29;;;;;;;;;;;;;;;4.11;100.00;100655.81;342335;28;843;-75
2023/01/03 00:09:40;;;;;;;;;;;;;;;4.09;100.00;100654.94;343619;28;1387;-75
2023/01/03 00:09:50;;;;;;;;;;;;;;;4.09;100.00;100654.94;344269;28;2901;-75
2023/01/03 00:10:04;;;;;;;;;;;;;;;4.09;100.00;100652.34;343279;28;3630;-75
2023/01/03 00:10:14;;;;;;;;;;;;;;;4.10;100.00;100655.81;342446;28;848;-75
2023/01/03 00:10:25;;;;;;;;;;;;;;;4.10;100.00;100660.97;341001;28;1435;-75
2023/01/03 00:10:35;;;;;;;;;;;;;;;4.10;100.00;100656.66;342503;28;3119;-74
2023/01/03 00:10:45;;;;;;;;;;;;;;;4.08;100.00;100658.38;342297;28;793;-74
2023/01/03 00:10:55;;;;;;;;;;;;;;;4.08;100.00;100658.38;342449;28;1357;-74
2023/01/03 00:11:16;;;;;;;;;;;;;;;4.07;100.00;100659.25;339908;29;3277;-75
2023/01/03 00:12:26;;;;;;;;;;;;;;;4.11;100.00;100658.41;335209;29;3255;-75
2023/01/03 00:12:36;;;;;;;;;;;;;;;4.12;100.00;100654.09;336990;29;1432;-75
2023/01/03 00:12:46;;;;;;;;;;;;;;;4.12;100.00;100662.72;335820;29;696;-75
2023/01/03 00:12:56;;;;;;;;;;;;;;;4.12;100.00;100657.53;337042;29;1301;-74
2023/01/03 00:13:07;;;;;;;;;;;;;;;4.12;100.00;100659.25;333327;29;3254;-74
2023/01/03 00:13:17;;;;;;;;;;;;;;;4.12;100.00;100660.13;333378;29;960;-74
2023/01/03 00:13:27;;;;;;;;;;;;;;;4.11;100.00;100655.81;335332;29;1344;-74
2023/01/03 00:13:37;;;;;;;;;;;;;;;4.11;100.00;100657.53;332526;29;3064;-74
2023/01/03 00:13:48;;;;;;;;;;;;;;;4.11;100.00;100660.13;331537;29;3250;-76
2023/01/03 00:13:58;;;;;;;;;;;;;;;4.11;100.00;100658.41;331776;29;1845;-76
2023/01/03 00:14:09;;;;;;;;;;;;;;;4.12;100.00;100659.25;331208;29;2060;-75
2023/01/03 00:14:22;;;;;;;;;;;;;;;4.10;100.00;100659.25;329556;29;3346;-75
2023/01/03 00:14:33;;;;;;;;;;;;;;;4.10;100.00;100660.97;328417;30;820;-75
2023/01/03 00:14:43;;;;;;;;;;;;;;;4.11;100.00;100657.53;329331;30;1586;-75
2023/01/03 00:14:53;;;;;;;;;;;;;;;4.10;100.00;100656.66;325194;30;3379;-74
2023/01/03 00:15:04;;;;;;;;;;;;;;;4.10;100.00;100656.66;324699;30;912;-75
2023/01/03 00:15:14;;;;;;;;;;;;;;;4.11;100.00;100658.41;323362;30;1188;-74
2023/01/03 00:15:24;;;;;;;;;;;;;;;4.11;100.00;100658.41;323266;30;1616;-74
2023/01/03 00:15:35;;;;;;;;;;;;;;;4.10;100.00;100655.81;320065;30;3277;-74
2023/01/03 00:15:45;;;;;;;;;;;;;;;4.10;100.00;100655.81;316461;31;1258;-76
2023/01/03 00:15:55;;;;;;;;;;;;;;;4.10;100.00;100661.84;315122;31;2264;-75
2023/01/03 00:16:13;;;;;;;;;;;;;;;4.10;100.00;100655.81;313964;31;2482;-75
2023/01/03 00:16:23;;;;;;;;;;;;;;;4.10;100.00;100659.25;313956;31;2636;-75
2023/01/03 00:16:33;;;;;;;;;;;;;;;4.09;100.00;100665.28;313155;31;850;-73
2023/01/03 00:16:44;;;;;;;;;;;;;;;4.09;100.00;100657.53;311855;31;2885;-75
2023/01/03 00:16:55;;;;;;;;;;;;;;;4.10;100.00;100660.97;310828;31;3411;-74
2023/01/03 00:17:05;;;;;;;;;;;;;;;4.10;100.00;100660.97;312712;31;1249;-74
2023/01/03 00:17:16;;;;;;;;;;;;;;;4.08;100.00;100666.16;312076;31;1474;-75
2023/01/03 00:17:26;;;;;;;;;;;;;;;4.08;100.00;100652.34;309267;31;3222;-74
2023/01/03 00:17:37;;;;;;;;;;;;;;;4.07;100.00;100659.25;307279;31;3547;-74
2023/01/03 00:17:47;;;;;;;;;;;;;;;4.07;100.00;100659.25;306535;32;1235;-74
2023/01/03 00:17:57;;;;;;;;;;;;;;;4.07;100.00;100656.66;307260;31;2431;-74
2023/01/03 00:18:07;;;;;;;;;;;;;;;4.08;100.00;100660.97;306432;31;3522;-74
2023/01/03 00:18:17;;;;;;;;;;;;;;;4.08;100.00;100658.38;311941;31;949;-75
2023/01/03 00:18:28;;;;;;;;;;;;;;;4.08;100.00;100663.56;310016;31;3585;-74
2023/01/03 00:18:38;;;;;;;;;;;;;;;4.08;100.00;100658.38;309141;31;3239;-75
2023/01/03 00:18:48;;;;;;;;;;;;;;;4.08;100.00;100657.53;306555;32;3314;-75
2023/01/03 00:18:58;;;;;;;;;;;;;;;4.08;100.00;100658.38;308180;31;3213;-75
2023/01/03 00:19:09;;;;;;;;;;;;;;;4.08;100.00;100663.56;309197;31;2510;-75
2023/01/03 00:19:20;;;;;;;;;;;;;;;4.09;100.00;100661.84;307487;32;3381;-74
2023/01/03 00:19:32;;;;;;;;;;;;;;;4.09;100.00;100665.28;302423;32;1323;-76
2023/01/03 00:19:42;;;;;;;;;;;;;;;4.09;100.00;100659.25;301465;32;2064;-76
2023/01/03 00:19:53;;;;;;;;;;;;;;;4.08;100.00;100668.75;302944;32;2799;-73
2023/01/03 00:20:03;;;;;;;;;;;;;;;4.08;100.00;100663.56;304401;32;3156;-75
2023/01/03 00:20:13;;;;;;;;;;;;;;;4.07;100.00;100659.25;301297;32;3297;-75
2023/01/03 00:20:24;;;;;;;;;;;;;;;4.08;100.00;100658.38;299407;32;3680;-75
2023/01/03 00:20:34;;;;;;;;;;;;;;;4.08;100.00;100668.75;300821;32;3304;-75
2023/01/03 00:20:44;;;;;;;;;;;;;;;4.07;100.00;100660.97;295489;33;3883;-75
2023/01/03 00:20:54;;;;;;;;;;;;;;;4.07;100.00;100667.03;294332;33;4546;-75
2023/01/03 00:21:05;;;;;;;;;;;;;;;4.07;100.00;100656.66;295007;33;4080;-73
2023/01/03 00:21:15;;;;;;;;;;;;;;;4.06;100.00;100660.09;289807;34;3334;-74
2023/01/03 00:21:25;;;;;;;;;;;;;;;4.07;100.00;100661.84;289537;34;2889;-75
2023/01/03 00:21:35;;;;;;;;;;;;;;;4.05;100.00;100660.97;289583;33;2414;-74
2023/01/03 00:21:45;;;;;;;;;;;;;;;4.06;100.00;100654.06;290724;34;1424;-75
2023/01/03 00:21:56;;;;;;;;;;;;;;;4.05;100.00;100658.38;285288;34;3576;-74
2023/01/03 00:22:06;;;;;;;;;;;;;;;4.05;100.00;100658.38;284679;34;4608;-74
2023/01/03 00:22:16;;;;;;;;;;;;;;;4.06;100.00;100662.69;285707;34;1018;-74
2023/01/03 00:22:29;;;;;;;;;;;;;;;4.05;100.00;100663.56;280476;34;5105;-74
2023/01/03 00:22:40;;;;;;;;;;;;;;;4.04;100.00;100656.66;283137;34;5555;-74
2023/01/03 00:22:50;;;;;;;;;;;;;;;4.04;100.00;100654.06;284316;34;5728;-74
2023/01/03 00:23:01;;;;;;;;;;;;;;;4.05;100.00;100657.50;281927;35;1358;-74
2023/01/03 00:23:11;;;;;;;;;;;;;;;4.03;100.00;100657.50;278417;35;5997;-74
2023/01/03 00:23:21;;;;;;;;;;;;;;;4.04;100.00;100667.00;280144;34;5853;-74
2023/01/03 00:23:31;;;;;;;;;;;;;;;4.04;100.00;100664.41;281112;35;1332;-74
2023/01/03 00:23:41;;;;;;;;;;;;;;;4.04;100.00;100661.81;278660;35;4361;-74
2023/01/03 00:23:52;;;;;;;;;;;;;;;4.04;100.00;100661.81;277536;35;5011;-74
2023/01/03 00:24:02;;;;;;;;;;;;;;;4.03;100.00;100665.28;278570;35;982;-74
2023/01/03 00:24:12;;;;;;;;;;;;;;;4.04;100.00;100660.97;276357;35;5539;-74
2023/01/03 00:26:19;;;;;;;;;;;;;;;4.00;100.00;100657.50;2501125;27;19923;-75
2023/01/03 00:26:29;;;;;;;;;;;;;;;4.01;100.00;100654.06;354695;27;1311;-76
2023/01/03 00:26:39;;;;;;;;;;;;;;;4.01;100.00;100657.50;352333;28;1238;-75
2023/01/03 00:26:50;;;;;;;;;;;;;;;4.00;100.00;100660.94;350605;28;824;-75
2023/01/03 00:27:00;;;;;;;;;;;;;;;4.02;100.00;100663.56;347925;28;3309;-75
2023/01/03 00:27:11;;;;;;;;;;;;;;;4.01;100.00;100661.81;347787;28;891;-75
2023/01/03 00:27:21;;;;;;;;;;;;;;;4.00;100.00;100660.94;349617;28;839;-75
2023/01/03 00:27:31;;;;;;;;;;;;;;;4.00;100.00;100653.19;347318;28;2938;-75
2023/01/03 00:27:41;;;;;;;;;;;;;;;3.98;100.00;100661.81;348766;28;1841;-75
2023/01/03 00:27:52;;;;;;;;;;;;;;;3.98;100.00;100656.63;349279;28;833;-75
2023/01/03 00:28:02;;;;;;;;;;;;;;;3.97;100.00;100655.75;350500;28;839;-75
2023/01/03 00:28:12;;;;;;;;;;;;;;;3.99;100.00;100655.78;350022;28;1309;-75
2023/01/03 00:28:22;;;;;;;;;;;;;;;3.98;100.00;100656.63;348132;28;3400;-75
2023/01/03 00:28:33;;;;;;;;;;;;;;;3.98;100.00;100656.63;349202;28;856;-76
2023/01/03 00:28:43;;;;;;;;;;;;;;;3.97;100.00;100660.06;349826;28;984;-75
2023/01/03 00:28:53;;;;;;;;;;;;;;;3.97;100.00;100666.13;349355;28;3162;-75
2023/01/03 00:29:03;;;;;;;;;;;;;;;3.97;100.00;100657.50;351850;28;812;-75
2023/01/03 00:29:14;;;;;;;;;;;;;;;3.97;100.00;100660.94;353437;28;784;-75
2023/01/03 00:29:24;;;;;;;;;;;;;;;3.97;100.00;100654.91;349459;28;1061;-74
2023/01/03 00:29:34;;;;;;;;;;;;;;;3.97;100.00;100660.94;349222;28;3284;-76
2023/01/03 00:29:44;;;;;;;;;;;;;;;3.97;100.00;100657.50;346808;28;1184;-75
2023/01/03 00:29:54;;;;;;;;;;;;;;;3.98;100.00;100660.09;348116;28;1410;-75
2023/01/03 00:30:05;;;;;;;;;;;;;;;3.98;100.00;100659.22;346878;28;2674;-76
2023/01/03 00:30:15;;;;;;;;;;;;;;;3.98;100.00;100667.00;348279;28;3424;-75
2023/01/03 00:30:25;;;;;;;;;;;;;;;3.98;100.00;100656.63;349325;28;1211;-75
2023/01/03 00:30:36;;;;;;;;;;;;;;;3.98;100.00;100662.69;349197;28;808;-75
2023/01/03 00:30:46;;;;;;;;;;;;;;;3.98;100.00;100656.63;347301;28;3262;-75
2023/01/03 00:30:56;;;;;;;;;;;;;;;3.98;100.00;100654.03;347652;28;1196;-75
2023/01/03 00:31:07;;;;;;;;;;;;;;;3.98;100.00;100656.63;346507;28;860;-75
2023/01/03 00:31:17;;;;;;;;;;;;;;;3.96;100.00;100653.16;349003;28;1510;-75
2023/01/03 00:31:27;;;;;;;;;;;;;;;3.96;100.00;100653.16;346802;28;3223;-74
2023/01/03 00:31:38;;;;;;;;;;;;;;;3.96;100.00;100658.34;347752;28;1294;-74
2023/01/03 00:31:48;;;;;;;;;;;;;;;3.95;100.00;100661.81;345061;28;1264;-74
2023/01/03 00:31:58;;;;;;;;;;;;;;;3.97;100.00;100660.06;343121;28;3096;-75
2023/01/03 00:32:09;;;;;;;;;;;;;;;3.97;100.00;100670.44;344942;28;1075;-74
2023/01/03 00:32:19;;;;;;;;;;;;;;;3.97;100.00;100654.91;345177;28;784;-75
2023/01/03 00:32:29;;;;;;;;;;;;;;;3.95;100.00;100661.81;346148;28;1400;-75
2023/01/03 00:32:39;;;;;;;;;;;;;;;3.94;100.00;100655.75;346358;28;3142;-74
2023/01/03 00:32:50;;;;;;;;;;;;;;;3.93;100.00;100666.97;346410;28;820;-74
2023/01/03 00:33:00;;;;;;;;;;;;;;;3.92;100.00;100660.06;346420;28;1054;-74
2023/01/03 00:33:10;;;;;;;;;;;;;;;3.93;100.00;100659.22;343991;28;1320;-74
2023/01/03 00:33:20;;;;;;;;;;;;;;;3.93;100.00;100663.53;341503;28;3120;-74
2023/01/03 00:33:31;;;;;;;;;;;;;;;3.93;100.00;100654.03;345037;28;1027;-74
2023/01/03 00:33:41;;;;;;;;;;;;;;;3.94;100.00;100654.88;343639;28;915;-75
2023/01/03 00:33:51;;;;;;;;;;;;;;;3.95;100.00;100664.38;342354;28;3234;-74
2023/01/03 00:34:01;;;;;;;;;;;;;;;3.95;100.00;100661.81;344322;28;3559;-74
2023/01/03 00:34:12;;;;;;;;;;;;;;;3.94;100.00;100654.88;343691;28;1253;-74
2023/01/03 00:34:22;;;;;;;;;;;;;;;3.95;100.00;100651.44;345106;28;821;-75
2023/01/03 00:34:32;;;;;;;;;;;;;;;3.94;100.00;100655.75;340566;28;3152;-75
2023/01/03 00:34:43;;;;;;;;;;;;;;;3.95;100.00;100656.63;341665;28;3706;-75
2023/01/03 00:34:53;;;;;;;;;;;;;;;3.95;100.00;100665.25;345079;28;1510;-75
2023/01/03 00:35:04;;;;;;;;;;;;;;;3.96;100.00;100658.34;345037;28;1244;-75
2023/01/03 00:35:14;;;;;;;;;;;;;;;3.95;100.00;100666.97;342927;28;3296;-75
2023/01/03 00:35:24;;;;;;;;;;;;;;;3.93;100.00;100658.34;339567;28;1303;-75
2023/01/03 00:35:34;;;;;;;;;;;;;;;3.92;100.00;100662.66;341087;29;805;-75
2023/01/03 00:35:44;;;;;;;;;;;;;;;3.92;100.00;100667.84;340821;28;1226;-75
2023/01/03 00:35:55;;;;;;;;;;;;;;;3.92;100.00;100659.19;337001;29;3098;-75
2023/01/03 00:36:06;;;;;;;;;;;;;;;3.90;100.00;100660.94;338471;29;862;-75
2023/01/03 00:36:16;;;;;;;;;;;;;;;3.91;100.00;100662.66;339220;29;1748;-75
2023/01/03 00:36:26;;;;;;;;;;;;;;;3.91;100.00;100660.06;337095;28;1638;-75
2023/01/03 00:36:36;;;;;;;;;;;;;;;3.91;100.00;100660.94;337136;29;3372;-74
2023/01/03 00:36:47;;;;;;;;;;;;;;;3.91;100.00;100660.94;336761;29;1785;-75
2023/01/03 00:36:57;;;;;;;;;;;;;;;3.91;100.00;100663.50;334120;29;2140;-75
2023/01/03 00:37:07;;;;;;;;;;;;;;;3.91;100.00;100658.34;332282;29;3038;-75
2023/01/03 00:37:17;;;;;;;;;;;;;;;3.91;100.00;100655.75;336453;29;3182;-75
2023/01/03 00:37:28;;;;;;;;;;;;;;;3.92;100.00;100656.63;335059;29;1431;-75
2023/01/03 00:37:38;;;;;;;;;;;;;;;3.92;100.00;100661.78;337117;29;828;-75
2023/01/03 00:37:48;;;;;;;;;;;;;;;3.93;100.00;100658.34;333997;29;3277;-75
2023/01/03 00:37:58;;;;;;;;;;;;;;;3.90;100.00;100659.19;336520;29;1192;-75
2023/01/03 00:38:08;;;;;;;;;;;;;;;3.91;100.00;100662.66;335553;29;1989;-75
2023/01/03 00:38:19;;;;;;;;;;;;;;;3.90;100.00;100658.38;333333;29;1278;-75
2023/01/03 00:38:29;;;;;;;;;;;;;;;3.88;100.00;100662.66;329208;29;3077;-75
2023/01/03 00:38:39;;;;;;;;;;;;;;;3.87;100.00;100664.41;327838;30;2103;-76
2023/01/03 00:38:49;;;;;;;;;;;;;;;3.88;100.00;100660.94;327167;30;938;-75
2023/01/03 00:39:00;;;;;;;;;;;;;;;3.89;100.00;100665.28;328343;29;2294;-74
2023/01/03 00:39:13;;;;;;;;;;;;;;;3.88;100.00;100657.50;326306;29;3393;-75
2023/01/03 00:39:24;;;;;;;;;;;;;;;3.88;100.00;100660.94;330651;29;2606;-75
2023/01/03 00:39:34;;;;;;;;;;;;;;;3.88;100.00;100660.94;328206;30;1232;-75
2023/01/03 00:39:44;;;;;;;;;;;;;;;3.88;100.00;100665.25;325815;30;3221;-75
2023/01/03 00:39:54;;;;;;;;;;;;;;;3.85;100.00;100660.06;326817;30;1266;-75
2023/01/03 00:40:05;;;;;;;;;;;;;;;3.84;100.00;100656.63;325847;30;1323;-75
2023/01/03 00:40:15;;;;;;;;;;;;;;;3.85;100.00;100657.47;324683;30;2134;-74
2023/01/03 00:40:25;;;;;;;;;;;;;;;3.85;100.00;100654.88;325940;29;3336;-74
2023/01/03 00:40:36;;;;;;;;;;;;;;;3.86;100.00;100656.63;331017;29;784;-75
2023/01/03 00:40:46;;;;;;;;;;;;;;;3.85;100.00;100660.06;326620;30;2981;-75
2023/01/03 00:41:09;;;;;;;;;;;;;;;3.87;100.00;100658.34;324866;30;3250;-75
2023/01/03 00:41:19;;;;;;;;;;;;;;;3.87;100.00;100659.22;329248;30;1373;-75
2023/01/03 00:41:29;;;;;;;;;;;;;;;3.88;100.00;100660.94;327620;30;3455;-75
2023/01/03 00:41:39;;;;;;;;;;;;;;;3.88;100.00;100655.78;323523;30;3364;-75
2023/01/03 00:41:50;;;;;;;;;;;;;;;3.88;100.00;100658.34;321171;30;1215;-75
2023/01/03 00:42:00;;;;;;;;;;;;;;;3.88;100.00;100657.50;321688;30;2509;-75
2023/01/03 00:42:10;;;;;;;;;;;;;;;3.87;100.00;100659.22;320732;30;3218;-75
2023/01/03 00:42:20;;;;;;;;;;;;;;;3.87;100.00;100658.34;321980;30;3341;-75
2023/01/03 00:43:27;;;;;;;;;;;;;;;3.85;100.00;100652.31;319314;30;2818;-75
2023/01/03 00:43:34;;;;;;;;;;;;;;;3.80;100.00;100652.28;313974;31;3728;-75
2023/01/03 00:43:43;;;;;;;;;;;;;;;3.83;100.00;100651.44;314879;31;4348;-75
2023/01/03 00:43:45;;;;;;;;;;;;;;;3.81;100.00;100658.34;313002;31;4534;-75
2023/01/03 00:43:55;;;;;;;;;;;;;;;3.82;100.00;100652.28;313565;31;4507;-74
2023/01/03 00:44:06;;;;;;;;;;;;;;;3.82;100.00;100657.47;310987;31;3472;-74
2023/01/03 00:44:16;;;;;;;;;;;;;;;3.82;100.00;100654.88;310268;31;3275;-74
2023/01/03 00:44:26;;;;;;;;;;;;;;;3.81;100.00;100653.16;308718;31;3302;-74
2023/01/03 00:44:36;;;;;;;;;;;;;;;3.81;100.00;100655.75;306770;32;2845;-74
2023/01/03 00:44:47;;;;;;;;;;;;;;;3.80;100.00;100651.41;305339;31;4392;-75
2023/01/03 00:44:57;;;;;;;;;;;;;;;3.77;100.00;100652.28;306179;31;5255;-74
2023/01/03 00:45:07;;;;;;;;;;;;;;;3.76;100.00;100649.69;308691;32;1729;-74
2023/01/03 00:45:17;;;;;;;;;;;;;;;3.75;100.00;100659.16;303581;32;6094;-74
2023/01/03 00:45:28;;;;;;;;;;;;;;;3.75;100.00;100659.16;304589;32;5711;-74
2023/01/03 00:45:38;;;;;;;;;;;;;;;3.76;100.00;100660.91;304269;32;1339;-74
2023/01/03 00:45:48;;;;;;;;;;;;;;;3.76;100.00;100649.69;297432;33;810;-75
2023/01/03 00:45:58;;;;;;;;;;;;;;;3.77;100.00;100651.41;293387;33;6057;-75
2023/01/03 00:46:09;;;;;;;;;;;;;;;3.79;100.00;100654.88;292378;33;6485;-75
2023/01/03 00:46:19;;;;;;;;;;;;;;;3.79;100.00;100654.88;292409;33;927;-75
2023/01/03 00:46:29;;;;;;;;;;;;;;;3.79;100.00;100657.47;289248;33;5339;-75
2023/01/03 00:46:40;;;;;;;;;;;;;;;3.79;100.00;100653.16;289009;34;5349;-75
2023/01/03 00:46:50;;;;;;;;;;;;;;;3.80;100.00;100651.41;289421;34;1421;-75
2023/01/03 00:47:00;;;;;;;;;;;;;;;3.79;100.00;100650.56;286147;34;6427;-74
2023/01/03 00:47:10;;;;;;;;;;;;;;;3.80;100.00;100654.88;283993;34;7204;-75
2023/01/03 00:47:21;;;;;;;;;;;;;;;3.80;100.00;100654.00;286602;34;1427;-75
2023/01/03 00:47:31;;;;;;;;;;;;;;;3.79;100.00;100653.16;284517;34;8324;-75
2023/01/03 00:47:41;;;;;;;;;;;;;;;3.79;100.00;100654.88;282428;34;9017;-75
2023/01/03 00:47:51;;;;;;;;;;;;;;;3.80;100.00;100651.41;282379;35;3505;-75
2023/01/03 00:48:02;;;;;;;;;;;;;;;3.79;100.00;100654.88;283974;34;9128;-75
2023/01/03 00:48:12;;;;;;;;;;;;;;;3.79;100.00;100655.72;284210;34;8275;-75
2023/01/03 00:48:22;;;;;;;;;;;;;;;3.79;100.00;100654.88;284924;34;3314;-75
2023/01/03 00:48:33;;;;;;;;;;;;;;;3.80;100.00;100656.59;283684;34;9332;-75
2023/01/03 00:48:43;;;;;;;;;;;;;;;3.78;100.00;100648.81;281314;34;8053;-75
2023/01/03 00:50:18;;;;;;;;;;;;;;;3.79;99.93;100652.28;2501180;27;19933;-75
2023/01/03 00:50:28;;;;;;;;;;;;;;;3.79;100.00;100650.56;354674;27;1207;-75
2023/01/03 00:50:38;;;;;;;;;;;;;;;3.80;99.91;100651.41;353332;28;1201;-75
2023/01/03 00:50:49;;;;;;;;;;;;;;;3.80;100.00;100647.09;352033;28;832;-75
2023/01/03 00:51:08;;;;;;;;;;;;;;;3.81;100.00;100653.16;348590;28;3136;-75
2023/01/03 00:51:23;;;;;;;;;;;;;;;3.79;99.86;100645.38;349192;28;915;-75
2023/01/03 00:51:33;;;;;;;;;;;;;;;3.80;100.00;100652.28;348066;28;3313;-74
2023/01/03 00:51:44;;;;;;;;;;;;;;;3.81;100.00;100653.16;349479;28;3325;-74
2023/01/03 00:51:54;;;;;;;;;;;;;;;3.80;100.00;100657.47;348855;28;1231;-74
2023/01/03 00:52:04;;;;;;;;;;;;;;;3.80;100.00;100651.41;347818;28;883;-75
2023/01/03 00:52:14;;;;;;;;;;;;;;;3.82;99.99;100649.69;344854;28;3688;-75
2023/01/03 00:52:25;;;;;;;;;;;;;;;3.81;100.00;100653.16;346841;28;864;-75
2023/01/03 00:52:35;;;;;;;;;;;;;;;3.81;100.00;100647.97;346461;28;3369;-75
2023/01/03 00:52:45;;;;;;;;;;;;;;;3.81;99.93;100653.16;349135;28;1145;-75
2023/01/03 00:52:55;;;;;;;;;;;;;;;3.80;100.00;100652.28;349102;28;1466;-75
2023/01/03 00:53:05;;;;;;;;;;;;;;;3.79;99.88;100650.56;350649;28;808;-74
2023/01/03 00:53:16;;;;;;;;;;;;;;;3.79;100.00;100655.72;350208;28;3212;-74
2023/01/03 00:53:26;;;;;;;;;;;;;;;3.79;99.90;100649.69;351862;28;780;-74
2023/01/03 00:53:36;;;;;;;;;;;;;;;3.80;100.00;100651.41;350585;28;1326;-75
2023/01/03 00:53:47;;;;;;;;;;;;;;;3.80;100.00;100646.25;349848;28;3237;-74
2023/01/03 00:53:58;;;;;;;;;;;;;;;3.79;99.94;100649.69;349624;28;1776;-75
2023/01/03 00:54:08;;;;;;;;;;;;;;;3.80;100.00;100651.41;353385;27;1545;-76
2023/01/03 00:54:18;;;;;;;;;;;;;;;3.79;100.00;100645.38;351769;28;1310;-75
2023/01/03 00:54:29;;;;;;;;;;;;;;;3.79;99.96;100649.69;349870;28;3259;-76
2023/01/03 00:54:39;;;;;;;;;;;;;;;3.78;99.98;100645.38;347363;28;948;-75
2023/01/03 00:54:49;;;;;;;;;;;;;;;3.79;99.84;100649.69;343739;28;1190;-75
2023/01/03 00:54:59;;;;;;;;;;;;;;;3.78;99.95;100647.97;343338;28;1246;-75
2023/01/03 00:55:10;;;;;;;;;;;;;;;3.78;99.99;100642.78;346442;28;1565;-75
2023/01/03 00:55:20;;;;;;;;;;;;;;;3.78;99.99;100647.97;346531;28;958;-75
2023/01/03 00:55:32;;;;;;;;;;;;;;;3.77;99.80;100646.22;346322;28;891;-75
2023/01/03 00:55:43;;;;;;;;;;;;;;;3.77;99.99;100641.06;345993;28;1442;-75
2023/01/03 00:55:54;;;;;;;;;;;;;;;3.78;99.93;100642.78;345503;28;1281;-75
2023/01/03 00:56:05;;;;;;;;;;;;;;;3.78;99.93;100640.19;347507;28;1448;-75
2023/01/03 00:56:17;;;;;;;;;;;;;;;3.77;99.90;100644.50;349710;28;1357;-75
2023/01/03 00:56:28;;;;;;;;;;;;;;;3.77;99.86;100647.09;349449;28;1473;-75
2023/01/03 00:56:39;;;;;;;;;;;;;;;3.77;99.89;100651.41;344746;28;1409;-75
2023/01/03 00:56:50;;;;;;;;;;;;;;;3.77;100.00;100643.66;347696;28;911;-75
2023/01/03 00:57:00;;;;;;;;;;;;;;;3.75;100.00;100642.78;347243;28;1231;-75
2023/01/03 00:57:10;;;;;;;;;;;;;;;3.74;100.00;100643.63;349766;28;1202;-75
2023/01/03 00:57:21;;;;;;;;;;;;;;;3.74;100.00;100644.50;350314;28;1209;-75
2023/01/03 00:57:31;;;;;;;;;;;;;;;3.73;100.00;100639.31;350312;28;1432;-75
2023/01/03 00:57:41;;;;;;;;;;;;;;;3.73;100.00;100642.78;347314;28;1288;-75
2023/01/03 00:57:51;;;;;;;;;;;;;;;3.71;100.00;100641.03;348915;28;887;-75
2023/01/03 00:58:02;;;;;;;;;;;;;;;3.72;100.00;100647.94;348830;28;1214;-75
2023/01/03 00:58:12;;;;;;;;;;;;;;;3.71;100.00;100646.22;347237;28;1346;-75
2023/01/03 00:58:22;;;;;;;;;;;;;;;3.70;100.00;100645.34;347244;28;1317;-75
2023/01/03 00:58:33;;;;;;;;;;;;;;;3.71;100.00;100651.38;344820;28;797;-75
2023/01/03 00:58:43;;;;;;;;;;;;;;;3.71;100.00;100646.22;344053;28;1022;-75
2023/01/03 00:58:53;;;;;;;;;;;;;;;3.71;99.87;100641.91;341690;28;1476;-75
2023/01/03 00:59:04;;;;;;;;;;;;;;;3.72;100.00;100645.34;340713;29;1306;-75
2023/01/03 00:59:14;;;;;;;;;;;;;;;3.72;100.00;100642.75;342789;28;1914;-75
2023/01/03 00:59:25;;;;;;;;;;;;;;;3.72;100.00;100642.75;342026;28;1205;-75
2023/01/03 00:59:35;;;;;;;;;;;;;;;3.72;100.00;100645.34;339358;29;1339;-75
2023/01/03 00:59:45;;;;;;;;;;;;;;;3.71;100.00;100649.66;338123;29;1361;-75
2023/01/03 00:59:55;;;;;;;;;;;;;;;3.71;100.00;100641.03;340720;29;1173;-75
2023/01/03 01:00:06;;;;;;;;;;;;;;;3.72;99.95;100642.75;342126;28;1332;-75
2023/01/03 01:00:16;;;;;;;;;;;;;;;3.70;100.00;100650.53;337947;29;1417;-75
2023/01/03 01:00:26;;;;;;;;;;;;;;;3.70;100.00;100642.75;338999;28;1528;-75
2023/01/03 01:00:36;;;;;;;;;;;;;;;3.70;100.00;100642.75;340849;29;1209;-75
2023/01/03 01:00:47;;;;;;;;;;;;;;;3.71;100.00;100647.06;338948;28;1505;-75
2023/01/03 01:01:03;;;;;;;;;;;;;;;3.70;100.00;100647.94;339155;29;1639;-75
2023/01/03 01:01:17;;;;;;;;;;;;;;;3.70;100.00;100644.47;339914;29;2156;-75
2023/01/03 01:01:27;;;;;;;;;;;;;;;3.68;100.00;100644.47;335400;29;1698;-75
2023/01/03 01:01:38;;;;;;;;;;;;;;;3.69;100.00;100646.19;334524;29;795;-75
2023/01/03 01:01:52;;;;;;;;;;;;;;;3.68;100.00;100634.97;338173;29;1321;-75
2023/01/03 01:02:03;;;;;;;;;;;;;;;3.68;100.00;100647.06;336898;29;807;-75
2023/01/03 01:02:14;;;;;;;;;;;;;;;3.67;100.00;100643.59;334718;29;1733;-76
2023/01/03 01:02:24;;;;;;;;;;;;;;;3.67;100.00;100646.19;334587;29;2038;-75
2023/01/03 01:02:34;;;;;;;;;;;;;;;3.65;100.00;100647.91;338099;29;1318;-75
2023/01/03 01:02:44;;;;;;;;;;;;;;;3.65;99.88;100647.91;330097;29;2159;-75
2023/01/03 01:02:54;;;;;;;;;;;;;;;3.65;100.00;100641.88;323963;30;2179;-75
2023/01/03 01:03:05;;;;;;;;;;;;;;;3.65;100.00;100645.31;328064;30;1281;-75
2023/01/03 01:03:16;;;;;;;;;;;;;;;3.63;100.00;100639.28;329110;29;2432;-75